createdAt,value
2019-04-14T00:01:23.790Z,24.90
2019-04-14T00:04:11.457Z,22.93
2019-04-14T00:06:41.953Z,22.97
2019-04-14T00:09:16.514Z,23.40
2019-04-14T00:11:46.140Z,23.07
2019-04-14T00:14:16.377Z,24.43
2019-04-14T00:16:46.748Z,23.07
2019-04-14T00:19:17.159Z,24.80
2019-04-14T00:21:47.611Z,24.37
2019-04-14T00:24:18.345Z,21.53
2019-04-14T00:26:48.791Z,23.60
2019-04-14T00:29:19.495Z,22.87
2019-04-14T00:31:51.066Z,23.90
2019-04-14T00:34:37.872Z,23.27
2019-04-14T00:37:18.461Z,21.77
2019-04-14T00:39:55.937Z,24.30
2019-04-14T00:42:29.863Z,24.57
2019-04-14T00:45:00.860Z,24.23
2019-04-14T00:47:33.132Z,23.40
2019-04-14T00:50:03.610Z,21.90
2019-04-14T00:52:34.077Z,22.53
2019-04-14T00:55:05.288Z,23.73
2019-04-14T00:57:35.553Z,23.20
2019-04-14T01:00:08.221Z,23.07
2019-04-14T01:02:38.521Z,22.73
2019-04-14T01:05:08.974Z,26.10
2019-04-14T01:07:39.149Z,24.90
2019-04-14T01:10:10.307Z,24.00
2019-04-14T01:12:40.929Z,23.98
2019-04-14T01:15:11.502Z,26.23
2019-04-14T01:17:41.781Z,23.93
2019-04-14T01:20:12.417Z,25.83
2019-04-14T01:22:42.440Z,26.17
2019-04-14T01:25:12.844Z,23.40
2019-04-14T01:27:42.906Z,26.53
2019-04-14T01:30:13.341Z,25.03
2019-04-14T01:32:43.642Z,25.23
2019-04-14T01:35:13.856Z,25.20
2019-04-14T01:37:44.093Z,25.63
2019-04-14T01:40:14.223Z,25.90
2019-04-14T01:42:44.227Z,25.03
2019-04-14T01:45:16.448Z,25.37
2019-04-14T01:47:46.756Z,26.23
2019-04-14T01:50:19.056Z,28.13
2019-04-14T01:52:50.228Z,25.37
2019-04-14T01:55:24.479Z,27.13
2019-04-14T01:57:56.769Z,25.30
2019-04-14T02:00:46.670Z,28.80
2019-04-14T02:03:17.063Z,26.37
2019-04-14T02:05:47.478Z,28.27
2019-04-14T02:08:17.720Z,25.50
2019-04-14T02:10:47.859Z,28.23
2019-04-14T02:13:18.190Z,27.83
2019-04-14T02:15:48.515Z,28.23
2019-04-14T02:18:18.551Z,28.27
2019-04-14T02:20:49.065Z,28.90
2019-04-14T02:23:19.251Z,31.63
2019-04-14T02:25:49.380Z,30.40
2019-04-14T02:28:19.903Z,29.87
2019-04-14T02:31:00.212Z,30.15
2019-04-14T02:33:44.715Z,31.30
2019-04-14T02:36:21.942Z,31.00
2019-04-14T02:39:01.829Z,30.27
2019-04-14T02:41:40.895Z,31.67
2019-04-14T02:43:58.095Z,30.67
2019-04-14T02:46:26.268Z,29.93
2019-04-14T02:49:00.280Z,31.60
2019-04-14T02:58:59.902Z,31.10
2019-04-14T03:01:31.594Z,31.40
2019-04-14T03:03:56.355Z,29.73
2019-04-14T03:06:35.334Z,30.57
2019-04-14T03:11:31.266Z,29.10
2019-04-14T03:14:07.595Z,28.07
2019-04-14T03:16:39.680Z,29.23
2019-04-14T03:19:14.079Z,30.40
2019-04-14T03:24:18.538Z,25.87
2019-04-14T03:27:18.429Z,31.07
2019-04-14T03:29:44.937Z,30.60
2019-04-14T03:32:28.892Z,29.90
2019-04-14T03:34:55.180Z,29.37
2019-04-14T03:37:39.579Z,29.50
2019-04-14T03:39:48.068Z,26.27
2019-04-14T03:42:21.262Z,28.30
2019-04-14T03:44:49.524Z,28.15
2019-04-14T03:47:21.317Z,27.10
2019-04-14T03:49:52.913Z,27.30
2019-04-14T03:52:26.888Z,27.33
2019-04-14T03:54:44.026Z,27.80
2019-04-14T03:56:59.857Z,27.97
2019-04-14T03:59:30.284Z,27.10
2019-04-14T04:02:00.786Z,26.87
2019-04-14T04:04:31.492Z,28.13
2019-04-14T04:07:01.848Z,27.90
2019-04-14T04:09:36.494Z,28.47
2019-04-14T04:12:05.902Z,29.37
2019-04-14T04:14:35.756Z,29.03
2019-04-14T04:17:19.327Z,30.23
2019-04-14T04:19:56.148Z,26.60
2019-04-14T04:22:43.482Z,27.03
2019-04-14T04:25:14.513Z,27.37
2019-04-14T04:27:51.157Z,27.37
2019-04-14T04:30:31.832Z,29.75
2019-04-14T04:33:02.889Z,27.97
2019-04-14T04:35:50.069Z,27.27
2019-04-14T04:38:33.522Z,26.90
2019-04-14T04:41:03.772Z,27.20
2019-04-14T04:43:34.109Z,29.03
2019-04-14T04:46:04.744Z,28.73
2019-04-14T04:48:34.950Z,28.27
2019-04-14T04:51:05.028Z,27.17
2019-04-14T04:53:35.393Z,27.93
2019-04-14T04:56:05.770Z,26.93
2019-04-14T04:58:35.216Z,26.07
2019-04-14T05:01:05.647Z,27.75
2019-04-14T05:03:36.390Z,27.57
2019-04-14T05:06:59.263Z,27.07
2019-04-14T05:09:32.432Z,28.00
2019-04-14T05:12:15.385Z,27.70
2019-04-14T05:15:01.422Z,28.07
2019-04-14T05:17:38.896Z,28.17
2019-04-14T05:20:09.499Z,29.30
2019-04-14T05:22:39.804Z,28.30
2019-04-14T05:25:10.096Z,31.03
2019-04-14T05:27:40.833Z,30.60
2019-04-14T05:30:11.201Z,30.43
2019-04-14T05:32:41.282Z,30.67
2019-04-14T05:35:11.927Z,29.10
2019-04-14T05:37:42.107Z,30.03
2019-04-14T05:40:12.401Z,28.53
2019-04-14T05:42:42.736Z,31.57
2019-04-14T05:45:13.350Z,29.77
2019-04-14T05:47:43.630Z,31.13
2019-04-14T05:50:13.706Z,30.97
2019-04-14T05:52:43.133Z,30.30
2019-04-14T05:55:13.480Z,31.52
2019-04-14T05:57:43.772Z,31.23
2019-04-14T06:00:16.740Z,30.63
2019-04-14T06:02:46.425Z,31.13
2019-04-14T06:05:18.984Z,30.83
2019-04-14T06:07:48.354Z,30.70
2019-04-14T06:10:17.744Z,32.03
2019-04-14T06:12:47.786Z,31.48
2019-04-14T06:15:17.742Z,29.98
2019-04-14T06:17:47.811Z,30.68
2019-04-14T06:20:17.816Z,31.37
2019-04-14T06:22:47.917Z,29.87
2019-04-14T06:25:17.804Z,33.47
2019-04-14T06:27:47.878Z,32.03
2019-04-14T06:30:35.688Z,32.05
2019-04-14T06:33:09.681Z,35.57
2019-04-14T06:35:57.145Z,33.43
2019-04-14T06:38:28.428Z,30.90
2019-04-14T06:41:02.139Z,33.53
2019-04-14T06:43:31.859Z,32.23
2019-04-14T06:46:01.593Z,33.63
2019-04-14T06:48:30.985Z,33.55
2019-04-14T06:51:00.357Z,34.50
2019-04-14T06:53:29.727Z,33.07
2019-04-14T06:55:59.101Z,33.97
2019-04-14T06:58:28.463Z,34.67
2019-04-14T07:00:57.840Z,33.50
2019-04-14T07:03:27.218Z,33.27
2019-04-14T07:05:56.596Z,31.87
2019-04-14T07:08:25.958Z,31.80
2019-04-14T07:10:55.343Z,33.43
2019-04-14T07:13:24.998Z,32.33
2019-04-14T07:15:54.367Z,34.27
2019-04-14T07:18:23.730Z,36.43
2019-04-14T07:20:53.117Z,33.88
2019-04-14T07:23:22.794Z,34.43
2019-04-14T07:25:52.250Z,32.77
2019-04-14T07:28:21.622Z,33.30
2019-04-14T07:31:08.098Z,32.40
2019-04-14T07:33:39.125Z,32.67
2019-04-14T07:36:10.131Z,34.00
2019-04-14T07:38:41.135Z,32.13
2019-04-14T07:41:27.702Z,33.13
2019-04-14T07:43:58.707Z,32.20
2019-04-14T07:46:38.453Z,32.47
2019-04-14T07:49:25.471Z,33.60
2019-04-14T07:52:12.803Z,33.63
2019-04-14T07:54:46.352Z,32.20
2019-04-14T07:57:17.370Z,34.33
2019-04-14T08:00:04.248Z,34.00
2019-04-14T08:02:38.014Z,34.47
2019-04-14T08:05:12.136Z,34.47
2019-04-14T08:07:42.186Z,34.37
2019-04-14T08:10:11.689Z,36.07
2019-04-14T08:12:41.059Z,32.47
2019-04-14T08:15:10.744Z,31.40
2019-04-14T08:17:40.441Z,32.30
2019-04-14T08:20:10.021Z,31.93
2019-04-14T08:22:39.416Z,32.47
2019-04-14T08:25:09.151Z,30.57
2019-04-14T08:27:38.491Z,32.77
2019-04-14T08:30:10.101Z,30.03
2019-04-14T08:32:39.748Z,33.47
2019-04-14T08:35:09.839Z,32.77
2019-04-14T08:37:39.234Z,31.27
2019-04-14T08:40:08.838Z,30.70
2019-04-14T08:42:52.046Z,29.77
2019-04-14T08:45:25.749Z,30.63
2019-04-14T08:47:56.759Z,31.40
2019-04-14T08:50:43.691Z,28.62
2019-04-14T08:53:14.929Z,27.13
2019-04-14T08:55:54.747Z,25.37
2019-04-14T08:58:28.466Z,25.50
2019-04-14T09:01:05.391Z,27.97
2019-04-14T09:03:36.394Z,24.03
2019-04-14T09:06:13.217Z,25.57
2019-04-14T09:08:44.222Z,25.47
2019-04-14T09:11:15.503Z,26.10
2019-04-14T09:13:44.898Z,25.37
2019-04-14T09:16:14.283Z,25.10
2019-04-14T09:18:43.652Z,23.27
2019-04-14T09:21:13.032Z,21.53
2019-04-14T09:23:42.409Z,22.80
2019-04-14T09:26:12.067Z,23.10
2019-04-14T09:28:41.447Z,24.67
2019-04-14T09:31:10.832Z,22.90
2019-04-14T09:33:40.206Z,24.37
2019-04-14T09:36:09.670Z,22.40
2019-04-14T09:38:39.044Z,22.23
2019-04-14T09:41:08.433Z,22.43
2019-04-14T09:43:37.840Z,22.87
2019-04-14T09:46:07.471Z,21.70
2019-04-14T09:48:36.813Z,23.92
2019-04-14T09:51:06.269Z,23.13
2019-04-14T09:53:35.995Z,23.27
2019-04-14T09:56:05.683Z,24.95
2019-04-14T09:58:35.049Z,25.93
2019-04-14T10:01:04.813Z,25.07
2019-04-14T10:03:34.181Z,25.80
2019-04-14T10:06:03.621Z,24.37
2019-04-14T10:08:32.999Z,24.05
2019-04-14T10:11:02.381Z,25.77
2019-04-14T10:13:31.761Z,26.30
2019-04-14T10:16:01.147Z,26.37
2019-04-14T10:18:30.512Z,25.13
2019-04-14T10:20:59.891Z,25.80
2019-04-14T10:23:29.535Z,25.13
2019-04-14T10:25:58.917Z,26.87
2019-04-14T10:28:28.294Z,26.07
2019-04-14T10:30:57.672Z,24.10
2019-04-14T10:33:27.055Z,25.60
2019-04-14T10:35:56.605Z,26.47
2019-04-14T10:38:26.005Z,26.87
2019-04-14T10:40:55.674Z,25.97
2019-04-14T10:43:25.060Z,23.95
2019-04-14T10:45:54.434Z,21.57
2019-04-14T10:48:24.171Z,26.13
2019-04-14T10:50:53.563Z,26.23
2019-04-14T10:53:23.278Z,23.97
2019-04-14T10:55:52.821Z,24.70
2019-04-14T10:58:22.212Z,25.83
2019-04-14T11:00:51.667Z,25.43
2019-04-14T11:03:21.040Z,25.63
2019-04-14T11:05:55.253Z,25.50
2019-04-14T11:08:24.655Z,25.37
2019-04-14T11:10:54.034Z,26.27
2019-04-14T11:13:23.451Z,27.33
2019-04-14T11:15:52.810Z,25.60
2019-04-14T11:18:22.216Z,23.93
2019-04-14T11:20:51.920Z,26.33
2019-04-14T11:23:21.336Z,27.07
2019-04-14T11:25:50.856Z,25.77
2019-04-14T11:28:21.090Z,25.17
2019-04-14T11:30:51.206Z,26.15
2019-04-14T11:33:25.458Z,26.35
2019-04-14T11:35:59.170Z,25.75
2019-04-14T11:38:33.386Z,26.90
2019-04-14T11:41:03.024Z,25.80
2019-04-14T11:43:32.431Z,25.17
2019-04-14T11:46:03.765Z,26.53
2019-04-14T11:48:32.897Z,25.92
2019-04-14T11:51:02.303Z,24.63
2019-04-14T11:53:31.683Z,24.87
2019-04-14T11:56:01.463Z,23.57
2019-04-14T11:58:30.840Z,24.00
2019-04-14T12:01:04.791Z,23.37
2019-04-14T12:03:36.123Z,23.17
2019-04-14T12:06:19.356Z,22.20
2019-04-14T12:08:55.971Z,21.97
2019-04-14T12:11:25.365Z,23.90
2019-04-14T12:13:55.672Z,22.07
2019-04-14T12:16:25.069Z,23.57
2019-04-14T12:18:54.446Z,22.07
2019-04-14T12:21:23.835Z,21.63
2019-04-14T12:23:53.217Z,22.13
2019-04-14T12:26:22.601Z,22.27
2019-04-14T12:28:51.988Z,21.27
2019-04-14T12:31:21.852Z,20.97
2019-04-14T12:33:51.374Z,20.97
2019-04-14T12:36:21.448Z,20.88
2019-04-14T12:38:51.596Z,19.00
2019-04-14T12:41:33.220Z,18.73
2019-04-14T12:44:04.208Z,19.87
2019-04-14T12:46:41.639Z,18.97
2019-04-14T12:49:18.668Z,19.00
2019-04-14T12:51:55.226Z,19.70
2019-04-14T12:54:25.971Z,19.30
2019-04-14T12:56:56.640Z,19.70
2019-04-14T12:59:26.581Z,19.07
2019-04-14T13:02:03.496Z,19.67
2019-04-14T13:04:32.873Z,19.00
2019-04-14T13:07:02.263Z,18.77
2019-04-14T13:09:31.633Z,17.47
2019-04-14T13:12:01.024Z,18.50
2019-04-14T13:14:30.387Z,17.97
2019-04-14T13:16:59.773Z,17.73
2019-04-14T13:19:29.145Z,17.63
2019-04-14T13:21:58.782Z,16.87
2019-04-14T13:24:28.152Z,18.30
2019-04-14T13:26:57.605Z,17.33
2019-04-14T13:29:26.996Z,16.90
2019-04-14T13:31:56.375Z,17.60
2019-04-14T13:34:25.756Z,16.47
2019-04-14T13:36:55.467Z,16.93
2019-04-14T13:39:25.832Z,18.00
2019-04-14T13:41:55.203Z,17.83
2019-04-14T13:44:24.592Z,17.80
2019-04-14T13:46:53.970Z,17.37
2019-04-14T13:49:23.346Z,17.43
2019-04-14T13:51:52.971Z,16.70
2019-04-14T13:54:22.620Z,18.43
2019-04-14T13:56:52.204Z,16.60
2019-04-14T13:59:22.240Z,16.57
2019-04-14T14:01:52.244Z,17.50
2019-04-14T14:04:22.776Z,17.13
2019-04-14T14:06:53.217Z,16.76
2019-04-14T14:09:23.226Z,17.37
2019-04-14T14:12:04.065Z,16.10
2019-04-14T14:14:50.993Z,15.90
2019-04-14T14:17:30.935Z,15.60
2019-04-14T14:20:04.910Z,12.80
2019-04-14T14:22:36.157Z,14.78
2019-04-14T14:25:07.589Z,14.17
2019-04-14T14:27:36.964Z,14.60
2019-04-14T14:30:10.111Z,15.05
2019-04-14T14:32:39.736Z,15.87
2019-04-14T14:35:09.264Z,14.90
2019-04-14T14:37:38.635Z,15.27
2019-04-14T14:40:08.428Z,13.77
2019-04-14T14:42:37.798Z,15.47
2019-04-14T14:45:16.551Z,15.50
2019-04-14T14:47:47.705Z,12.90
2019-04-14T14:50:19.696Z,14.73
2019-04-14T14:52:49.043Z,14.33
2019-04-14T14:55:18.439Z,14.40
2019-04-14T14:57:47.793Z,15.47
2019-04-14T15:00:27.973Z,15.53
2019-04-14T15:02:57.352Z,14.27
2019-04-14T15:05:27.522Z,15.30
2019-04-14T15:07:56.894Z,14.03
2019-04-14T15:10:26.295Z,13.43
2019-04-14T15:12:55.741Z,14.60
2019-04-14T15:15:25.216Z,13.87
2019-04-14T15:17:54.600Z,14.63
2019-04-14T15:20:24.298Z,14.20
2019-04-14T15:22:54.124Z,14.05
2019-04-14T15:25:24.299Z,14.68
2019-04-14T15:27:54.139Z,14.78
2019-04-14T15:30:24.370Z,15.93
2019-04-14T15:32:53.993Z,15.88
2019-04-14T15:35:24.167Z,14.70
2019-04-14T15:37:53.960Z,14.78
2019-04-14T15:40:24.104Z,14.90
2019-04-14T15:42:54.020Z,15.08
2019-04-14T15:45:24.107Z,15.58
2019-04-14T15:47:54.030Z,16.37
2019-04-14T15:50:24.215Z,14.25
2019-04-14T15:52:54.135Z,15.40
2019-04-14T15:55:24.085Z,14.85
2019-04-14T15:57:55.808Z,14.98
2019-04-14T16:00:36.212Z,14.73
2019-04-14T16:03:25.439Z,16.30
2019-04-14T16:06:05.040Z,14.73
2019-04-14T16:08:38.566Z,12.83
2019-04-14T16:11:15.320Z,14.63
2019-04-14T16:13:54.856Z,16.23
2019-04-14T16:16:42.181Z,15.50
2019-04-14T16:19:18.877Z,14.80
2019-04-14T16:21:48.264Z,15.67
2019-04-14T16:24:17.649Z,14.70
2019-04-14T16:26:48.709Z,15.27
2019-04-14T16:29:25.565Z,13.00
2019-04-14T16:32:05.791Z,13.08
2019-04-14T16:34:36.809Z,14.53
2019-04-14T16:37:06.194Z,15.48
2019-04-14T16:39:35.900Z,14.70
2019-04-14T16:42:05.653Z,15.03
2019-04-14T16:44:35.029Z,14.10
2019-04-14T16:47:05.079Z,14.60
2019-04-14T16:49:34.465Z,13.77
2019-04-14T16:52:11.388Z,14.07
2019-04-14T16:54:58.623Z,13.87
2019-04-14T16:57:45.321Z,14.00
2019-04-14T17:00:17.042Z,12.00
2019-04-14T17:02:46.692Z,13.50
2019-04-14T17:05:16.156Z,14.83
2019-04-14T17:07:45.549Z,14.23
2019-04-14T17:10:14.958Z,14.10
2019-04-14T17:12:44.359Z,14.20
2019-04-14T17:15:27.664Z,14.40
2019-04-14T17:18:07.738Z,14.60
2019-04-14T17:20:54.906Z,14.87
2019-04-14T17:23:33.219Z,13.03
2019-04-14T17:26:10.517Z,13.98
2019-04-14T17:28:56.285Z,13.10
2019-04-14T17:31:27.587Z,13.17
2019-04-14T17:33:58.612Z,13.53
2019-04-14T17:36:29.664Z,13.77
2019-04-14T17:39:00.959Z,13.37
2019-04-14T17:41:32.986Z,13.53
2019-04-14T17:44:07.028Z,14.40
2019-04-14T17:46:38.077Z,13.67
2019-04-14T17:49:09.341Z,12.73
2019-04-14T17:51:42.797Z,13.63
2019-04-14T17:54:13.819Z,13.03
2019-04-14T17:56:45.147Z,14.00
2019-04-14T17:59:18.808Z,13.93
2019-04-14T18:02:08.130Z,12.80
2019-04-14T18:04:57.213Z,13.67
2019-04-14T18:07:44.277Z,12.95
2019-04-14T18:10:30.666Z,13.10
2019-04-14T18:13:19.830Z,13.80
2019-04-14T18:15:59.579Z,13.23
2019-04-14T18:18:39.337Z,13.87
2019-04-14T18:21:10.063Z,13.73
2019-04-14T18:23:39.434Z,13.73
2019-04-14T18:26:09.690Z,13.57
2019-04-14T18:28:46.389Z,12.90
2019-04-14T18:31:33.938Z,13.30
2019-04-14T18:34:08.266Z,13.23
2019-04-14T18:36:39.621Z,14.20
2019-04-14T18:39:14.462Z,13.00
2019-04-14T18:41:45.497Z,13.55
2019-04-14T18:44:19.348Z,13.57
2019-04-14T18:47:06.252Z,14.20
2019-04-14T18:49:43.216Z,16.00
2019-04-14T18:52:14.212Z,14.83
2019-04-14T18:54:57.182Z,14.70
2019-04-14T18:57:28.502Z,14.67
2019-04-14T18:59:59.511Z,14.30
2019-04-14T19:02:28.895Z,14.73
2019-04-14T19:04:58.281Z,14.20
2019-04-14T19:07:27.674Z,13.80
2019-04-14T19:09:57.203Z,14.67
2019-04-14T19:12:34.169Z,14.50
2019-04-14T19:15:06.563Z,15.17
2019-04-14T19:17:56.042Z,13.40
2019-04-14T19:20:25.415Z,14.57
2019-04-14T19:22:54.832Z,14.53
2019-04-14T19:25:24.169Z,14.23
2019-04-14T19:27:53.549Z,13.67
2019-04-14T19:30:23.436Z,14.20
2019-04-14T19:32:52.915Z,13.37
2019-04-14T19:35:22.307Z,13.65
2019-04-14T19:37:51.701Z,13.53
2019-04-14T19:40:21.342Z,12.87
2019-04-14T19:42:51.104Z,12.30
2019-04-14T19:45:20.722Z,13.90
2019-04-14T19:47:50.489Z,14.17
2019-04-14T19:50:19.859Z,12.80
2019-04-14T19:52:49.251Z,13.90
2019-04-14T19:55:20.553Z,13.57
2019-04-14T19:57:49.727Z,12.87
2019-04-14T20:00:19.698Z,13.60
2019-04-14T20:02:49.071Z,12.80
2019-04-14T20:05:18.568Z,13.00
2019-04-14T20:07:48.015Z,13.40
2019-04-14T20:10:17.404Z,12.70
2019-04-14T20:12:46.777Z,13.55
2019-04-14T20:15:18.003Z,13.23
2019-04-14T20:17:57.875Z,13.98
2019-04-14T20:20:45.087Z,14.00
2019-04-14T20:23:22.064Z,14.17
2019-04-14T20:26:11.217Z,14.37
2019-04-14T20:28:42.231Z,12.63
2019-04-14T20:31:29.843Z,13.40
2019-04-14T20:33:59.604Z,12.77
2019-04-14T20:36:28.984Z,13.77
2019-04-14T20:38:58.354Z,13.30
2019-04-14T20:41:27.723Z,13.13
2019-04-14T20:43:57.161Z,13.90
2019-04-14T20:46:26.543Z,13.10
2019-04-14T20:48:55.912Z,14.20
2019-04-14T20:51:25.298Z,13.33
2019-04-14T20:53:54.668Z,13.40
2019-04-14T20:56:24.082Z,13.87
2019-04-14T20:58:53.664Z,13.70
2019-04-14T21:01:23.309Z,12.47
2019-04-14T21:03:54.321Z,12.77
2019-04-14T21:06:25.639Z,13.13
2019-04-14T21:09:11.383Z,13.80
2019-04-14T21:11:42.409Z,14.03
2019-04-14T21:14:15.927Z,13.50
2019-04-14T21:16:52.994Z,12.88
2019-04-14T21:19:24.285Z,13.23
2019-04-14T21:21:55.297Z,14.20
2019-04-14T21:24:35.024Z,12.67
2019-04-14T21:27:15.343Z,14.23
2019-04-14T21:29:49.406Z,14.03
2019-04-14T21:32:26.208Z,14.63
2019-04-14T21:35:15.218Z,15.07
2019-04-14T21:37:58.509Z,14.50
2019-04-14T21:40:45.521Z,13.60
2019-04-14T21:43:14.973Z,13.70
2019-04-14T21:45:44.478Z,13.57
2019-04-14T21:48:13.852Z,13.37
2019-04-14T21:50:43.224Z,13.53
2019-04-14T21:53:12.601Z,14.43
2019-04-14T21:55:42.364Z,13.47
2019-04-14T21:58:25.228Z,13.07
2019-04-14T22:01:38.578Z,13.57
2019-04-14T22:04:21.693Z,12.55
2019-04-14T22:06:52.981Z,13.37
2019-04-14T22:09:24.336Z,13.93
2019-04-14T22:11:53.780Z,13.57
2019-04-14T22:14:23.220Z,13.73
2019-04-14T22:16:52.587Z,13.87
2019-04-14T22:19:21.967Z,13.10
2019-04-14T22:21:51.597Z,13.37
2019-04-14T22:24:21.092Z,13.43
2019-04-14T22:26:50.560Z,13.03
2019-04-14T22:29:19.935Z,13.32
2019-04-14T22:31:49.305Z,13.13
2019-04-14T22:34:18.990Z,13.47
2019-04-14T22:36:48.365Z,13.13
2019-04-14T22:39:17.914Z,13.47
2019-04-14T22:41:47.277Z,14.07
2019-04-14T22:44:16.909Z,13.43
2019-04-14T22:46:46.337Z,12.70
2019-04-14T22:49:16.021Z,12.63
2019-04-14T22:51:45.382Z,13.57
2019-04-14T22:54:14.779Z,13.30
2019-04-14T22:56:44.454Z,13.03
2019-04-14T22:59:14.161Z,12.13
2019-04-14T23:01:45.169Z,13.10
2019-04-14T23:04:16.201Z,13.07
2019-04-14T23:06:50.235Z,13.13
2019-04-14T23:09:21.262Z,12.90
2019-04-14T23:12:08.480Z,13.90
2019-04-14T23:14:54.274Z,13.00
2019-04-14T23:17:41.941Z,12.67
2019-04-14T23:20:13.280Z,12.90
2019-04-14T23:23:05.807Z,12.50
2019-04-14T23:25:35.329Z,13.03
2019-04-14T23:28:04.687Z,13.37
2019-04-14T23:30:34.493Z,13.70
2019-04-14T23:33:04.562Z,13.83
2019-04-14T23:35:34.584Z,13.85
2019-04-14T23:38:04.527Z,13.48
2019-04-14T23:40:34.612Z,13.93
2019-04-14T23:43:04.616Z,14.68
2019-04-14T23:45:34.609Z,13.55
2019-04-14T23:48:04.614Z,14.75
2019-04-14T23:50:34.691Z,13.83
2019-04-14T23:53:05.040Z,13.40
2019-04-14T23:55:34.745Z,14.40
2019-04-14T23:58:04.734Z,13.28
